<?xml version="1.0" encoding="UTF-8" standalone="no" ?>
<gpx xmlns="http://www.topografix.com/GPX/1/1" xmlns:xsi="http://www.w3.org/2001/XMLSchema-instance" xsi:schemaLocation="http://www.topografix.com/GPX/1/1 http://www.topografix.com/GPX/1/1/gpx.xsd" version="1.1" creator="VisuGPX - https://www.visugpx.com">
  <metadata>
    <name>secteur Saverne - Dabo - Petite Pierre</name>
  </metadata>
  <trk>
    <name><![CDATA[secteur Saverne - Dabo - Petite Pierre_16]]></name>
    <trkseg>
      <trkpt lat="48.67566" lon="7.26045">
        <ele>474</ele>
        <time>2020-08-18T12:44:22Z</time>
      </trkpt>
      <trkpt lat="48.67566" lon="7.26045">
        <ele>474</ele>
        <time>2020-08-18T12:44:22Z</time>
      </trkpt>
      <trkpt lat="48.67566" lon="7.26045">
        <ele>474</ele>
        <time>2020-08-18T12:44:22Z</time>
      </trkpt>
      <trkpt lat="48.67566" lon="7.26045">
        <ele>474</ele>
        <time>2020-08-18T12:44:22Z</time>
      </trkpt>
      <trkpt lat="48.67566" lon="7.26045">
        <ele>474</ele>
        <time>2020-08-18T12:44:22Z</time>
      </trkpt>
      <trkpt lat="48.67566" lon="7.26045">
        <ele>474</ele>
        <time>2020-08-18T12:44:22Z</time>
      </trkpt>
      <trkpt lat="48.67566" lon="7.26045">
        <ele>474</ele>
        <time>2020-08-18T12:44:22Z</time>
      </trkpt>
      <trkpt lat="48.67566" lon="7.26045">
        <ele>474</ele>
        <time>2020-08-18T12:44:22Z</time>
      </trkpt>
      <trkpt lat="48.67566" lon="7.26045">
        <ele>474</ele>
        <time>2020-08-18T12:44:22Z</time>
      </trkpt>
      <trkpt lat="48.67568" lon="7.26052">
        <ele>473.1</ele>
        <time>2020-08-18T12:44:37Z</time>
      </trkpt>
      <trkpt lat="48.67568" lon="7.26063">
        <ele>472.3</ele>
        <time>2020-08-18T12:44:40Z</time>
      </trkpt>
      <trkpt lat="48.67568" lon="7.2607">
        <ele>471.4</ele>
        <time>2020-08-18T12:44:42Z</time>
      </trkpt>
      <trkpt lat="48.67567" lon="7.26078">
        <ele>470.3</ele>
        <time>2020-08-18T12:44:44Z</time>
      </trkpt>
      <trkpt lat="48.67567" lon="7.26085">
        <ele>469.3</ele>
        <time>2020-08-18T12:44:46Z</time>
      </trkpt>
      <trkpt lat="48.67566" lon="7.26093">
        <ele>468.3</ele>
        <time>2020-08-18T12:44:48Z</time>
      </trkpt>
      <trkpt lat="48.67565" lon="7.26102">
        <ele>467.4</ele>
        <time>2020-08-18T12:44:50Z</time>
      </trkpt>
      <trkpt lat="48.67565" lon="7.26112">
        <ele>467.1</ele>
        <time>2020-08-18T12:44:52Z</time>
      </trkpt>
      <trkpt lat="48.67566" lon="7.26122">
        <ele>466.5</ele>
        <time>2020-08-18T12:44:54Z</time>
      </trkpt>
      <trkpt lat="48.67566" lon="7.26129">
        <ele>465.8</ele>
        <time>2020-08-18T12:44:56Z</time>
      </trkpt>
      <trkpt lat="48.67568" lon="7.26135">
        <ele>466.8</ele>
        <time>2020-08-18T12:45:18Z</time>
      </trkpt>
      <trkpt lat="48.67573" lon="7.26139">
        <ele>466.8</ele>
        <time>2020-08-18T12:45:26Z</time>
      </trkpt>
      <trkpt lat="48.67577" lon="7.26143">
        <ele>465.8</ele>
        <time>2020-08-18T12:45:28Z</time>
      </trkpt>
      <trkpt lat="48.67581" lon="7.26147">
        <ele>464.7</ele>
        <time>2020-08-18T12:45:30Z</time>
      </trkpt>
      <trkpt lat="48.67586" lon="7.26152">
        <ele>463.9</ele>
        <time>2020-08-18T12:45:33Z</time>
      </trkpt>
      <trkpt lat="48.67588" lon="7.26159">
        <ele>462.2</ele>
        <time>2020-08-18T12:45:35Z</time>
      </trkpt>
      <trkpt lat="48.67591" lon="7.26166">
        <ele>460.9</ele>
        <time>2020-08-18T12:45:38Z</time>
      </trkpt>
      <trkpt lat="48.67593" lon="7.26172">
        <ele>460</ele>
        <time>2020-08-18T12:45:53Z</time>
      </trkpt>
    </trkseg>
  </trk>
</gpx>